sensor_id;sensor_type;location;lat;lon;timestamp;P1;durP1;ratioP1;P2;durP2;ratioP2
16922;SDS011;8578;50.938;13.556;2023-04-16T00:02:19;14.03;;;8.90;;
16922;SDS011;8578;50.938;13.556;2023-04-16T00:04:48;15.60;;;9.53;;
16922;SDS011;8578;50.938;13.556;2023-04-16T00:07:16;12.93;;;8.63;;
16922;SDS011;8578;50.938;13.556;2023-04-16T00:09:43;13.33;;;8.50;;
16922;SDS011;8578;50.938;13.556;2023-04-16T00:12:11;14.23;;;8.37;;
16922;SDS011;8578;50.938;13.556;2023-04-16T00:14:39;15.70;;;8.97;;
16922;SDS011;8578;50.938;13.556;2023-04-16T00:17:07;12.90;;;8.63;;
16922;SDS011;8578;50.938;13.556;2023-04-16T00:19:35;12.13;;;8.03;;
16922;SDS011;8578;50.938;13.556;2023-04-16T00:22:04;10.50;;;7.23;;
16922;SDS011;8578;50.938;13.556;2023-04-16T00:24:31;11.27;;;7.80;;
16922;SDS011;8578;50.938;13.556;2023-04-16T00:26:59;13.20;;;8.07;;
16922;SDS011;8578;50.938;13.556;2023-04-16T00:29:26;11.40;;;7.70;;
16922;SDS011;8578;50.938;13.556;2023-04-16T00:31:56;12.10;;;8.20;;
16922;SDS011;8578;50.938;13.556;2023-04-16T00:34:23;12.03;;;7.83;;
16922;SDS011;8578;50.938;13.556;2023-04-16T00:36:51;13.03;;;7.90;;
16922;SDS011;8578;50.938;13.556;2023-04-16T00:39:20;11.63;;;7.70;;
16922;SDS011;8578;50.938;13.556;2023-04-16T00:41:47;10.93;;;7.17;;
16922;SDS011;8578;50.938;13.556;2023-04-16T00:44:15;10.87;;;7.23;;
16922;SDS011;8578;50.938;13.556;2023-04-16T00:46:43;10.47;;;6.77;;
16922;SDS011;8578;50.938;13.556;2023-04-16T00:49:10;12.87;;;8.00;;
16922;SDS011;8578;50.938;13.556;2023-04-16T00:51:38;11.57;;;7.67;;
16922;SDS011;8578;50.938;13.556;2023-04-16T00:54:05;11.70;;;7.63;;
16922;SDS011;8578;50.938;13.556;2023-04-16T00:56:34;12.90;;;8.40;;
16922;SDS011;8578;50.938;13.556;2023-04-16T00:59:03;15.63;;;8.90;;
16922;SDS011;8578;50.938;13.556;2023-04-16T01:01:30;12.47;;;7.87;;
16922;SDS011;8578;50.938;13.556;2023-04-16T01:03:58;12.57;;;7.40;;
16922;SDS011;8578;50.938;13.556;2023-04-16T01:06:25;12.47;;;7.60;;
16922;SDS011;8578;50.938;13.556;2023-04-16T01:08:53;11.73;;;7.43;;
16922;SDS011;8578;50.938;13.556;2023-04-16T01:11:20;12.57;;;7.97;;
16922;SDS011;8578;50.938;13.556;2023-04-16T01:13:49;13.17;;;7.70;;
16922;SDS011;8578;50.938;13.556;2023-04-16T01:16:17;12.30;;;7.93;;
16922;SDS011;8578;50.938;13.556;2023-04-16T01:18:45;11.03;;;7.20;;
16922;SDS011;8578;50.938;13.556;2023-04-16T01:21:14;9.33;;;6.70;;
16922;SDS011;8578;50.938;13.556;2023-04-16T01:23:41;11.10;;;7.77;;
16922;SDS011;8578;50.938;13.556;2023-04-16T01:26:09;12.00;;;7.63;;
16922;SDS011;8578;50.938;13.556;2023-04-16T01:28:36;12.10;;;7.90;;
16922;SDS011;8578;50.938;13.556;2023-04-16T01:31:04;13.43;;;8.37;;
16922;SDS011;8578;50.938;13.556;2023-04-16T01:33:57;11.90;;;7.37;;
16922;SDS011;8578;50.938;13.556;2023-04-16T01:36:28;11.03;;;7.10;;
16922;SDS011;8578;50.938;13.556;2023-04-16T01:38:55;9.40;;;6.83;;
16922;SDS011;8578;50.938;13.556;2023-04-16T01:41:23;10.47;;;6.80;;
16922;SDS011;8578;50.938;13.556;2023-04-16T01:43:50;9.77;;;6.67;;
16922;SDS011;8578;50.938;13.556;2023-04-16T01:46:19;11.30;;;7.10;;
16922;SDS011;8578;50.938;13.556;2023-04-16T01:48:47;10.17;;;6.43;;
16922;SDS011;8578;50.938;13.556;2023-04-16T01:51:16;9.33;;;6.23;;
16922;SDS011;8578;50.938;13.556;2023-04-16T01:53:45;9.47;;;6.33;;
16922;SDS011;8578;50.938;13.556;2023-04-16T01:56:12;9.40;;;5.97;;
16922;SDS011;8578;50.938;13.556;2023-04-16T01:58:40;11.50;;;7.17;;
16922;SDS011;8578;50.938;13.556;2023-04-16T02:01:08;11.03;;;7.23;;
16922;SDS011;8578;50.938;13.556;2023-04-16T02:03:37;10.87;;;6.73;;
16922;SDS011;8578;50.938;13.556;2023-04-16T02:06:05;11.50;;;6.73;;
16922;SDS011;8578;50.938;13.556;2023-04-16T02:08:34;11.03;;;6.47;;
16922;SDS011;8578;50.938;13.556;2023-04-16T02:11:03;10.53;;;6.53;;
16922;SDS011;8578;50.938;13.556;2023-04-16T02:13:30;12.13;;;7.90;;
16922;SDS011;8578;50.938;13.556;2023-04-16T02:15:58;13.40;;;8.13;;
16922;SDS011;8578;50.938;13.556;2023-04-16T02:18:49;12.53;;;7.23;;
16922;SDS011;8578;50.938;13.556;2023-04-16T02:21:19;11.30;;;7.27;;
16922;SDS011;8578;50.938;13.556;2023-04-16T02:23:47;11.87;;;7.60;;
16922;SDS011;8578;50.938;13.556;2023-04-16T02:26:24;12.07;;;7.00;;
16922;SDS011;8578;50.938;13.556;2023-04-16T02:28:54;10.70;;;6.77;;
16922;SDS011;8578;50.938;13.556;2023-04-16T02:31:26;9.63;;;5.87;;
16922;SDS011;8578;50.938;13.556;2023-04-16T02:33:55;12.77;;;6.40;;
16922;SDS011;8578;50.938;13.556;2023-04-16T02:36:23;10.73;;;6.67;;
16922;SDS011;8578;50.938;13.556;2023-04-16T02:38:54;10.67;;;6.47;;
16922;SDS011;8578;50.938;13.556;2023-04-16T02:41:23;12.17;;;7.30;;
16922;SDS011;8578;50.938;13.556;2023-04-16T02:43:50;10.23;;;6.87;;
16922;SDS011;8578;50.938;13.556;2023-04-16T02:46:18;10.83;;;6.77;;
16922;SDS011;8578;50.938;13.556;2023-04-16T02:48:45;10.63;;;6.20;;
16922;SDS011;8578;50.938;13.556;2023-04-16T02:51:13;12.77;;;6.33;;
16922;SDS011;8578;50.938;13.556;2023-04-16T02:53:40;9.47;;;6.50;;
16922;SDS011;8578;50.938;13.556;2023-04-16T02:56:11;11.27;;;6.70;;
16922;SDS011;8578;50.938;13.556;2023-04-16T02:58:40;10.03;;;6.43;;
16922;SDS011;8578;50.938;13.556;2023-04-16T03:01:07;10.60;;;6.37;;
16922;SDS011;8578;50.938;13.556;2023-04-16T03:03:35;11.33;;;6.70;;
16922;SDS011;8578;50.938;13.556;2023-04-16T03:06:02;12.00;;;6.57;;
16922;SDS011;8578;50.938;13.556;2023-04-16T03:08:30;10.93;;;6.80;;
16922;SDS011;8578;50.938;13.556;2023-04-16T03:10:57;11.17;;;6.30;;
16922;SDS011;8578;50.938;13.556;2023-04-16T03:13:25;10.10;;;6.43;;
16922;SDS011;8578;50.938;13.556;2023-04-16T03:15:55;8.50;;;5.77;;
16922;SDS011;8578;50.938;13.556;2023-04-16T03:18:22;10.57;;;7.00;;
16922;SDS011;8578;50.938;13.556;2023-04-16T03:20:50;9.97;;;6.47;;
16922;SDS011;8578;50.938;13.556;2023-04-16T03:23:17;10.93;;;6.93;;
16922;SDS011;8578;50.938;13.556;2023-04-16T03:25:45;11.77;;;6.30;;
16922;SDS011;8578;50.938;13.556;2023-04-16T03:28:16;10.57;;;6.53;;
16922;SDS011;8578;50.938;13.556;2023-04-16T03:30:48;10.80;;;6.83;;
16922;SDS011;8578;50.938;13.556;2023-04-16T03:33:18;13.70;;;6.40;;
16922;SDS011;8578;50.938;13.556;2023-04-16T03:35:46;12.13;;;7.00;;
16922;SDS011;8578;50.938;13.556;2023-04-16T03:38:13;15.90;;;8.37;;
16922;SDS011;8578;50.938;13.556;2023-04-16T03:40:41;15.30;;;8.07;;
16922;SDS011;8578;50.938;13.556;2023-04-16T03:43:08;14.63;;;8.40;;
16922;SDS011;8578;50.938;13.556;2023-04-16T03:45:42;13.93;;;8.30;;
16922;SDS011;8578;50.938;13.556;2023-04-16T03:48:10;15.33;;;9.20;;
16922;SDS011;8578;50.938;13.556;2023-04-16T03:50:43;14.80;;;7.27;;
16922;SDS011;8578;50.938;13.556;2023-04-16T03:53:11;13.77;;;8.30;;
16922;SDS011;8578;50.938;13.556;2023-04-16T03:55:39;11.77;;;7.03;;
16922;SDS011;8578;50.938;13.556;2023-04-16T03:58:07;13.03;;;7.63;;
16922;SDS011;8578;50.938;13.556;2023-04-16T04:00:35;13.80;;;7.67;;
16922;SDS011;8578;50.938;13.556;2023-04-16T04:03:11;10.70;;;6.83;;
16922;SDS011;8578;50.938;13.556;2023-04-16T04:05:40;11.67;;;7.17;;
16922;SDS011;8578;50.938;13.556;2023-04-16T04:08:09;11.27;;;7.00;;
16922;SDS011;8578;50.938;13.556;2023-04-16T04:10:37;13.23;;;7.40;;
16922;SDS011;8578;50.938;13.556;2023-04-16T04:13:05;12.57;;;7.50;;
16922;SDS011;8578;50.938;13.556;2023-04-16T04:15:34;15.03;;;7.70;;
16922;SDS011;8578;50.938;13.556;2023-04-16T04:18:01;12.40;;;7.67;;
16922;SDS011;8578;50.938;13.556;2023-04-16T04:20:29;13.13;;;7.80;;
16922;SDS011;8578;50.938;13.556;2023-04-16T04:22:58;13.43;;;7.70;;
16922;SDS011;8578;50.938;13.556;2023-04-16T04:25:26;13.43;;;7.60;;
16922;SDS011;8578;50.938;13.556;2023-04-16T04:27:53;12.23;;;7.43;;
16922;SDS011;8578;50.938;13.556;2023-04-16T04:30:20;12.33;;;7.47;;
16922;SDS011;8578;50.938;13.556;2023-04-16T04:32:48;11.27;;;7.07;;
16922;SDS011;8578;50.938;13.556;2023-04-16T04:35:16;10.97;;;6.70;;
16922;SDS011;8578;50.938;13.556;2023-04-16T04:37:43;11.47;;;6.83;;
16922;SDS011;8578;50.938;13.556;2023-04-16T04:40:17;13.27;;;7.27;;
16922;SDS011;8578;50.938;13.556;2023-04-16T04:42:44;13.10;;;7.87;;
16922;SDS011;8578;50.938;13.556;2023-04-16T04:45:12;12.07;;;7.33;;
16922;SDS011;8578;50.938;13.556;2023-04-16T04:47:40;14.23;;;7.90;;
16922;SDS011;8578;50.938;13.556;2023-04-16T04:50:09;12.87;;;8.03;;
16922;SDS011;8578;50.938;13.556;2023-04-16T04:52:36;12.87;;;8.03;;
16922;SDS011;8578;50.938;13.556;2023-04-16T04:55:05;14.00;;;7.97;;
16922;SDS011;8578;50.938;13.556;2023-04-16T04:57:35;14.70;;;7.93;;
16922;SDS011;8578;50.938;13.556;2023-04-16T05:00:04;15.57;;;8.20;;
16922;SDS011;8578;50.938;13.556;2023-04-16T05:02:39;16.13;;;8.30;;
16922;SDS011;8578;50.938;13.556;2023-04-16T05:05:07;15.67;;;8.70;;
16922;SDS011;8578;50.938;13.556;2023-04-16T05:07:35;17.27;;;9.30;;
16922;SDS011;8578;50.938;13.556;2023-04-16T05:10:02;14.03;;;8.77;;
16922;SDS011;8578;50.938;13.556;2023-04-16T05:12:30;15.90;;;8.97;;
16922;SDS011;8578;50.938;13.556;2023-04-16T05:14:59;15.73;;;8.33;;
16922;SDS011;8578;50.938;13.556;2023-04-16T05:17:26;14.97;;;8.27;;
16922;SDS011;8578;50.938;13.556;2023-04-16T05:19:53;13.97;;;8.37;;
16922;SDS011;8578;50.938;13.556;2023-04-16T05:22:21;15.40;;;9.07;;
16922;SDS011;8578;50.938;13.556;2023-04-16T05:24:48;14.20;;;8.37;;
16922;SDS011;8578;50.938;13.556;2023-04-16T05:27:15;14.03;;;8.93;;
16922;SDS011;8578;50.938;13.556;2023-04-16T05:29:43;14.77;;;8.77;;
16922;SDS011;8578;50.938;13.556;2023-04-16T05:32:12;13.00;;;8.07;;
16922;SDS011;8578;50.938;13.556;2023-04-16T05:34:39;16.23;;;8.37;;
16922;SDS011;8578;50.938;13.556;2023-04-16T05:37:07;14.33;;;8.27;;
16922;SDS011;8578;50.938;13.556;2023-04-16T05:39:34;14.60;;;8.40;;
16922;SDS011;8578;50.938;13.556;2023-04-16T05:42:02;17.47;;;8.90;;
16922;SDS011;8578;50.938;13.556;2023-04-16T05:44:29;14.63;;;8.40;;
16922;SDS011;8578;50.938;13.556;2023-04-16T05:46:57;16.33;;;9.47;;
16922;SDS011;8578;50.938;13.556;2023-04-16T05:49:26;18.27;;;9.87;;
16922;SDS011;8578;50.938;13.556;2023-04-16T05:51:53;17.60;;;9.37;;
16922;SDS011;8578;50.938;13.556;2023-04-16T05:54:21;15.30;;;9.50;;
16922;SDS011;8578;50.938;13.556;2023-04-16T05:56:48;18.50;;;9.53;;
16922;SDS011;8578;50.938;13.556;2023-04-16T05:59:16;18.30;;;9.97;;
16922;SDS011;8578;50.938;13.556;2023-04-16T06:01:43;16.67;;;9.07;;
16922;SDS011;8578;50.938;13.556;2023-04-16T06:04:11;15.10;;;9.00;;
16922;SDS011;8578;50.938;13.556;2023-04-16T06:06:40;14.63;;;9.27;;
16922;SDS011;8578;50.938;13.556;2023-04-16T06:09:07;17.20;;;9.20;;
16922;SDS011;8578;50.938;13.556;2023-04-16T06:11:37;16.10;;;9.67;;
16922;SDS011;8578;50.938;13.556;2023-04-16T06:14:04;17.07;;;10.10;;
16922;SDS011;8578;50.938;13.556;2023-04-16T06:16:32;17.80;;;10.03;;
16922;SDS011;8578;50.938;13.556;2023-04-16T06:18:59;15.70;;;9.87;;
16922;SDS011;8578;50.938;13.556;2023-04-16T06:21:27;16.97;;;9.77;;
16922;SDS011;8578;50.938;13.556;2023-04-16T06:23:56;17.67;;;10.77;;
16922;SDS011;8578;50.938;13.556;2023-04-16T06:26:23;16.97;;;9.97;;
16922;SDS011;8578;50.938;13.556;2023-04-16T06:28:52;16.73;;;9.97;;
16922;SDS011;8578;50.938;13.556;2023-04-16T06:31:19;16.90;;;10.00;;
16922;SDS011;8578;50.938;13.556;2023-04-16T06:33:47;17.20;;;10.63;;
16922;SDS011;8578;50.938;13.556;2023-04-16T06:36:14;19.90;;;11.27;;
16922;SDS011;8578;50.938;13.556;2023-04-16T06:38:42;19.97;;;11.43;;
16922;SDS011;8578;50.938;13.556;2023-04-16T06:41:11;21.67;;;11.70;;
16922;SDS011;8578;50.938;13.556;2023-04-16T06:43:39;20.40;;;11.57;;
16922;SDS011;8578;50.938;13.556;2023-04-16T06:46:06;19.77;;;10.67;;
16922;SDS011;8578;50.938;13.556;2023-04-16T06:48:34;19.07;;;10.70;;
16922;SDS011;8578;50.938;13.556;2023-04-16T06:51:01;17.10;;;10.47;;
16922;SDS011;8578;50.938;13.556;2023-04-16T06:53:29;19.87;;;10.93;;
16922;SDS011;8578;50.938;13.556;2023-04-16T06:55:56;19.93;;;11.60;;
16922;SDS011;8578;50.938;13.556;2023-04-16T06:58:25;21.70;;;12.33;;
16922;SDS011;8578;50.938;13.556;2023-04-16T07:00:53;23.23;;;12.47;;
16922;SDS011;8578;50.938;13.556;2023-04-16T07:03:20;19.87;;;12.67;;
16922;SDS011;8578;50.938;13.556;2023-04-16T07:05:48;21.27;;;12.37;;
16922;SDS011;8578;50.938;13.556;2023-04-16T07:08:15;22.63;;;12.83;;
16922;SDS011;8578;50.938;13.556;2023-04-16T07:10:43;22.93;;;13.50;;
16922;SDS011;8578;50.938;13.556;2023-04-16T07:13:11;22.47;;;13.77;;
16922;SDS011;8578;50.938;13.556;2023-04-16T07:15:40;22.93;;;12.27;;
16922;SDS011;8578;50.938;13.556;2023-04-16T07:18:07;21.30;;;12.70;;
16922;SDS011;8578;50.938;13.556;2023-04-16T07:20:35;22.87;;;13.10;;
16922;SDS011;8578;50.938;13.556;2023-04-16T07:23:02;21.10;;;13.23;;
16922;SDS011;8578;50.938;13.556;2023-04-16T07:25:30;17.70;;;11.73;;
16922;SDS011;8578;50.938;13.556;2023-04-16T07:27:57;25.60;;;12.90;;
16922;SDS011;8578;50.938;13.556;2023-04-16T07:30:25;24.23;;;13.70;;
16922;SDS011;8578;50.938;13.556;2023-04-16T07:32:59;22.33;;;12.97;;
16922;SDS011;8578;50.938;13.556;2023-04-16T07:35:26;19.60;;;11.83;;
16922;SDS011;8578;50.938;13.556;2023-04-16T07:37:54;18.20;;;12.17;;
16922;SDS011;8578;50.938;13.556;2023-04-16T07:40:22;17.20;;;11.40;;
16922;SDS011;8578;50.938;13.556;2023-04-16T07:42:49;19.63;;;12.20;;
16922;SDS011;8578;50.938;13.556;2023-04-16T07:45:17;18.37;;;11.40;;
16922;SDS011;8578;50.938;13.556;2023-04-16T07:47:45;15.93;;;10.17;;
16922;SDS011;8578;50.938;13.556;2023-04-16T07:50:14;12.87;;;9.00;;
16922;SDS011;8578;50.938;13.556;2023-04-16T07:52:42;14.63;;;9.70;;
16922;SDS011;8578;50.938;13.556;2023-04-16T07:55:10;12.63;;;8.00;;
16922;SDS011;8578;50.938;13.556;2023-04-16T07:57:38;7.73;;;5.60;;
16922;SDS011;8578;50.938;13.556;2023-04-16T08:00:07;8.20;;;5.43;;
16922;SDS011;8578;50.938;13.556;2023-04-16T08:02:40;5.53;;;4.20;;
16922;SDS011;8578;50.938;13.556;2023-04-16T08:05:08;5.80;;;4.23;;
16922;SDS011;8578;50.938;13.556;2023-04-16T08:07:39;6.60;;;4.60;;
16922;SDS011;8578;50.938;13.556;2023-04-16T08:10:07;5.60;;;4.20;;
16922;SDS011;8578;50.938;13.556;2023-04-16T08:12:34;7.50;;;5.00;;
16922;SDS011;8578;50.938;13.556;2023-04-16T08:15:02;8.13;;;5.33;;
16922;SDS011;8578;50.938;13.556;2023-04-16T08:17:30;8.43;;;5.10;;
16922;SDS011;8578;50.938;13.556;2023-04-16T08:19:59;6.47;;;4.90;;
16922;SDS011;8578;50.938;13.556;2023-04-16T08:22:27;7.20;;;5.17;;
16922;SDS011;8578;50.938;13.556;2023-04-16T08:24:56;6.10;;;4.97;;
16922;SDS011;8578;50.938;13.556;2023-04-16T08:27:23;5.80;;;4.10;;
16922;SDS011;8578;50.938;13.556;2023-04-16T08:29:51;6.03;;;3.87;;
16922;SDS011;8578;50.938;13.556;2023-04-16T08:32:18;4.97;;;3.57;;
16922;SDS011;8578;50.938;13.556;2023-04-16T08:34:46;4.40;;;3.50;;
16922;SDS011;8578;50.938;13.556;2023-04-16T08:37:13;6.00;;;3.03;;
16922;SDS011;8578;50.938;13.556;2023-04-16T08:39:40;4.07;;;3.13;;
16922;SDS011;8578;50.938;13.556;2023-04-16T08:42:11;4.57;;;3.27;;
16922;SDS011;8578;50.938;13.556;2023-04-16T08:44:40;5.23;;;3.43;;
16922;SDS011;8578;50.938;13.556;2023-04-16T08:47:09;4.07;;;3.00;;
16922;SDS011;8578;50.938;13.556;2023-04-16T08:49:40;3.20;;;2.63;;
16922;SDS011;8578;50.938;13.556;2023-04-16T08:52:12;3.40;;;2.97;;
16922;SDS011;8578;50.938;13.556;2023-04-16T08:54:42;4.33;;;2.70;;
16922;SDS011;8578;50.938;13.556;2023-04-16T08:57:23;4.20;;;2.87;;
16922;SDS011;8578;50.938;13.556;2023-04-16T08:59:52;3.33;;;2.33;;
16922;SDS011;8578;50.938;13.556;2023-04-16T09:02:21;3.93;;;2.97;;
16922;SDS011;8578;50.938;13.556;2023-04-16T09:04:48;3.63;;;2.70;;
16922;SDS011;8578;50.938;13.556;2023-04-16T09:07:18;4.67;;;3.20;;
16922;SDS011;8578;50.938;13.556;2023-04-16T09:09:45;4.50;;;3.13;;
16922;SDS011;8578;50.938;13.556;2023-04-16T09:12:14;4.70;;;3.47;;
16922;SDS011;8578;50.938;13.556;2023-04-16T09:14:46;5.53;;;3.33;;
16922;SDS011;8578;50.938;13.556;2023-04-16T09:17:14;6.77;;;4.60;;
16922;SDS011;8578;50.938;13.556;2023-04-16T09:19:43;4.40;;;3.70;;
16922;SDS011;8578;50.938;13.556;2023-04-16T09:22:10;5.63;;;4.60;;
16922;SDS011;8578;50.938;13.556;2023-04-16T09:24:38;6.87;;;4.80;;
16922;SDS011;8578;50.938;13.556;2023-04-16T09:27:07;7.90;;;5.80;;
16922;SDS011;8578;50.938;13.556;2023-04-16T09:29:34;7.40;;;5.10;;
16922;SDS011;8578;50.938;13.556;2023-04-16T09:32:05;6.70;;;4.53;;
16922;SDS011;8578;50.938;13.556;2023-04-16T09:34:33;6.60;;;4.60;;
16922;SDS011;8578;50.938;13.556;2023-04-16T09:39:44;7.27;;;5.50;;
16922;SDS011;8578;50.938;13.556;2023-04-16T09:42:12;8.37;;;5.47;;
16922;SDS011;8578;50.938;13.556;2023-04-16T09:44:39;6.20;;;4.93;;
16922;SDS011;8578;50.938;13.556;2023-04-16T09:47:08;5.50;;;4.53;;
16922;SDS011;8578;50.938;13.556;2023-04-16T09:49:39;5.97;;;4.67;;
16922;SDS011;8578;50.938;13.556;2023-04-16T09:52:08;7.33;;;4.97;;
16922;SDS011;8578;50.938;13.556;2023-04-16T09:54:39;7.63;;;5.30;;
16922;SDS011;8578;50.938;13.556;2023-04-16T09:57:11;5.77;;;4.33;;
16922;SDS011;8578;50.938;13.556;2023-04-16T09:59:39;6.37;;;5.07;;
16922;SDS011;8578;50.938;13.556;2023-04-16T10:02:06;7.17;;;5.77;;
16922;SDS011;8578;50.938;13.556;2023-04-16T10:04:46;7.90;;;6.13;;
16922;SDS011;8578;50.938;13.556;2023-04-16T10:07:14;8.87;;;6.40;;
16922;SDS011;8578;50.938;13.556;2023-04-16T10:09:41;8.73;;;6.87;;
16922;SDS011;8578;50.938;13.556;2023-04-16T10:12:09;8.00;;;6.20;;
16922;SDS011;8578;50.938;13.556;2023-04-16T10:14:38;8.57;;;6.87;;
16922;SDS011;8578;50.938;13.556;2023-04-16T10:17:06;9.47;;;6.70;;
16922;SDS011;8578;50.938;13.556;2023-04-16T10:19:34;8.63;;;6.83;;
16922;SDS011;8578;50.938;13.556;2023-04-16T10:22:03;8.20;;;6.13;;
16922;SDS011;8578;50.938;13.556;2023-04-16T10:24:32;9.30;;;6.80;;
16922;SDS011;8578;50.938;13.556;2023-04-16T10:27:00;8.20;;;6.50;;
16922;SDS011;8578;50.938;13.556;2023-04-16T10:29:28;10.17;;;6.47;;
16922;SDS011;8578;50.938;13.556;2023-04-16T10:31:56;7.97;;;6.23;;
16922;SDS011;8578;50.938;13.556;2023-04-16T10:34:24;9.07;;;6.83;;
16922;SDS011;8578;50.938;13.556;2023-04-16T10:36:52;7.53;;;5.80;;
16922;SDS011;8578;50.938;13.556;2023-04-16T10:39:21;8.37;;;6.30;;
16922;SDS011;8578;50.938;13.556;2023-04-16T10:41:49;7.20;;;5.80;;
16922;SDS011;8578;50.938;13.556;2023-04-16T10:44:17;7.57;;;5.57;;
16922;SDS011;8578;50.938;13.556;2023-04-16T10:46:45;6.00;;;4.97;;
16922;SDS011;8578;50.938;13.556;2023-04-16T10:49:16;7.27;;;5.43;;
16922;SDS011;8578;50.938;13.556;2023-04-16T10:51:52;6.63;;;4.90;;
16922;SDS011;8578;50.938;13.556;2023-04-16T10:54:22;6.43;;;5.10;;
16922;SDS011;8578;50.938;13.556;2023-04-16T10:56:50;6.53;;;4.73;;
16922;SDS011;8578;50.938;13.556;2023-04-16T10:59:19;5.03;;;4.40;;
16922;SDS011;8578;50.938;13.556;2023-04-16T11:01:49;7.10;;;5.30;;
16922;SDS011;8578;50.938;13.556;2023-04-16T11:04:26;3.87;;;3.30;;
16922;SDS011;8578;50.938;13.556;2023-04-16T11:06:59;4.60;;;3.30;;
16922;SDS011;8578;50.938;13.556;2023-04-16T11:09:44;3.20;;;2.57;;
16922;SDS011;8578;50.938;13.556;2023-04-16T11:12:13;5.03;;;3.80;;
16922;SDS011;8578;50.938;13.556;2023-04-16T11:14:40;4.30;;;3.43;;
16922;SDS011;8578;50.938;13.556;2023-04-16T11:17:08;4.57;;;3.63;;
16922;SDS011;8578;50.938;13.556;2023-04-16T11:19:36;4.90;;;3.57;;
16922;SDS011;8578;50.938;13.556;2023-04-16T11:22:04;5.20;;;3.60;;
16922;SDS011;8578;50.938;13.556;2023-04-16T11:24:32;4.70;;;3.30;;
16922;SDS011;8578;50.938;13.556;2023-04-16T11:27:01;5.17;;;4.10;;
16922;SDS011;8578;50.938;13.556;2023-04-16T11:29:29;3.93;;;3.33;;
16922;SDS011;8578;50.938;13.556;2023-04-16T11:31:56;4.70;;;2.90;;
16922;SDS011;8578;50.938;13.556;2023-04-16T11:34:24;3.47;;;2.80;;
16922;SDS011;8578;50.938;13.556;2023-04-16T11:36:51;3.37;;;2.77;;
16922;SDS011;8578;50.938;13.556;2023-04-16T11:39:18;3.73;;;2.87;;
16922;SDS011;8578;50.938;13.556;2023-04-16T11:41:47;4.97;;;3.10;;
16922;SDS011;8578;50.938;13.556;2023-04-16T11:44:18;3.30;;;2.53;;
16922;SDS011;8578;50.938;13.556;2023-04-16T11:46:45;5.03;;;3.50;;
16922;SDS011;8578;50.938;13.556;2023-04-16T11:49:13;3.43;;;2.80;;
16922;SDS011;8578;50.938;13.556;2023-04-16T11:51:40;3.13;;;2.40;;
16922;SDS011;8578;50.938;13.556;2023-04-16T11:54:08;3.10;;;2.70;;
16922;SDS011;8578;50.938;13.556;2023-04-16T11:56:37;3.47;;;2.50;;
16922;SDS011;8578;50.938;13.556;2023-04-16T11:59:09;3.90;;;3.30;;
16922;SDS011;8578;50.938;13.556;2023-04-16T12:01:39;4.57;;;3.37;;
16922;SDS011;8578;50.938;13.556;2023-04-16T12:04:07;3.87;;;3.00;;
16922;SDS011;8578;50.938;13.556;2023-04-16T12:06:35;4.47;;;3.13;;
16922;SDS011;8578;50.938;13.556;2023-04-16T12:11:45;3.17;;;2.70;;
16922;SDS011;8578;50.938;13.556;2023-04-16T12:14:13;4.10;;;3.10;;
16922;SDS011;8578;50.938;13.556;2023-04-16T12:16:43;2.93;;;2.50;;
16922;SDS011;8578;50.938;13.556;2023-04-16T12:19:11;4.37;;;3.40;;
16922;SDS011;8578;50.938;13.556;2023-04-16T12:21:41;6.27;;;4.73;;
16922;SDS011;8578;50.938;13.556;2023-04-16T12:24:09;6.10;;;4.43;;
16922;SDS011;8578;50.938;13.556;2023-04-16T12:26:41;7.33;;;5.10;;
16922;SDS011;8578;50.938;13.556;2023-04-16T12:29:15;6.63;;;4.87;;
16922;SDS011;8578;50.938;13.556;2023-04-16T12:31:45;6.80;;;4.90;;
16922;SDS011;8578;50.938;13.556;2023-04-16T12:34:12;5.90;;;4.20;;
16922;SDS011;8578;50.938;13.556;2023-04-16T12:36:41;4.43;;;3.80;;
16922;SDS011;8578;50.938;13.556;2023-04-16T12:39:11;5.30;;;4.10;;
16922;SDS011;8578;50.938;13.556;2023-04-16T12:41:40;5.60;;;4.33;;
16922;SDS011;8578;50.938;13.556;2023-04-16T12:44:09;5.60;;;4.57;;
16922;SDS011;8578;50.938;13.556;2023-04-16T12:46:39;6.80;;;5.23;;
16922;SDS011;8578;50.938;13.556;2023-04-16T12:49:09;5.70;;;4.17;;
16922;SDS011;8578;50.938;13.556;2023-04-16T12:51:37;5.80;;;4.80;;
16922;SDS011;8578;50.938;13.556;2023-04-16T12:54:06;6.87;;;5.00;;
16922;SDS011;8578;50.938;13.556;2023-04-16T12:56:33;6.53;;;4.77;;
16922;SDS011;8578;50.938;13.556;2023-04-16T12:59:02;7.40;;;4.97;;
16922;SDS011;8578;50.938;13.556;2023-04-16T13:01:30;7.27;;;5.37;;
16922;SDS011;8578;50.938;13.556;2023-04-16T13:03:58;6.17;;;4.70;;
16922;SDS011;8578;50.938;13.556;2023-04-16T13:06:27;6.33;;;5.03;;
16922;SDS011;8578;50.938;13.556;2023-04-16T13:08:55;6.40;;;4.70;;
16922;SDS011;8578;50.938;13.556;2023-04-16T13:11:22;6.97;;;5.37;;
16922;SDS011;8578;50.938;13.556;2023-04-16T13:13:50;7.23;;;5.27;;
16922;SDS011;8578;50.938;13.556;2023-04-16T13:16:18;9.40;;;5.67;;
16922;SDS011;8578;50.938;13.556;2023-04-16T13:18:46;6.73;;;5.40;;
16922;SDS011;8578;50.938;13.556;2023-04-16T13:21:14;7.40;;;4.70;;
16922;SDS011;8578;50.938;13.556;2023-04-16T13:23:43;6.60;;;4.03;;
16922;SDS011;8578;50.938;13.556;2023-04-16T13:26:11;6.50;;;4.13;;
16922;SDS011;8578;50.938;13.556;2023-04-16T13:28:40;6.50;;;4.30;;
16922;SDS011;8578;50.938;13.556;2023-04-16T13:31:09;5.27;;;3.80;;
16922;SDS011;8578;50.938;13.556;2023-04-16T13:33:39;5.37;;;4.07;;
16922;SDS011;8578;50.938;13.556;2023-04-16T13:36:07;6.17;;;4.50;;
16922;SDS011;8578;50.938;13.556;2023-04-16T13:38:34;6.43;;;4.30;;
16922;SDS011;8578;50.938;13.556;2023-04-16T13:41:04;5.67;;;4.50;;
16922;SDS011;8578;50.938;13.556;2023-04-16T13:43:32;6.60;;;4.33;;
16922;SDS011;8578;50.938;13.556;2023-04-16T13:46:00;5.70;;;4.40;;
16922;SDS011;8578;50.938;13.556;2023-04-16T13:48:28;5.77;;;4.00;;
16922;SDS011;8578;50.938;13.556;2023-04-16T13:50:55;5.97;;;4.53;;
16922;SDS011;8578;50.938;13.556;2023-04-16T13:53:25;6.47;;;5.00;;
16922;SDS011;8578;50.938;13.556;2023-04-16T13:55:52;7.40;;;5.60;;
16922;SDS011;8578;50.938;13.556;2023-04-16T13:58:22;6.33;;;4.90;;
16922;SDS011;8578;50.938;13.556;2023-04-16T14:00:49;7.03;;;4.77;;
16922;SDS011;8578;50.938;13.556;2023-04-16T14:03:17;6.37;;;4.70;;
16922;SDS011;8578;50.938;13.556;2023-04-16T14:05:45;6.63;;;5.10;;
16922;SDS011;8578;50.938;13.556;2023-04-16T14:08:13;6.50;;;4.50;;
16922;SDS011;8578;50.938;13.556;2023-04-16T14:10:42;5.93;;;4.20;;
16922;SDS011;8578;50.938;13.556;2023-04-16T14:13:09;6.83;;;4.77;;
16922;SDS011;8578;50.938;13.556;2023-04-16T14:15:39;5.83;;;4.40;;
16922;SDS011;8578;50.938;13.556;2023-04-16T14:18:07;7.03;;;5.40;;
16922;SDS011;8578;50.938;13.556;2023-04-16T14:20:35;7.37;;;4.93;;
16922;SDS011;8578;50.938;13.556;2023-04-16T14:23:04;5.40;;;3.93;;
16922;SDS011;8578;50.938;13.556;2023-04-16T14:25:32;6.73;;;3.80;;
16922;SDS011;8578;50.938;13.556;2023-04-16T14:28:00;6.33;;;3.77;;
16922;SDS011;8578;50.938;13.556;2023-04-16T14:30:27;5.10;;;3.67;;
16922;SDS011;8578;50.938;13.556;2023-04-16T14:32:56;4.60;;;3.23;;
16922;SDS011;8578;50.938;13.556;2023-04-16T14:35:24;5.27;;;3.70;;
16922;SDS011;8578;50.938;13.556;2023-04-16T14:37:51;5.67;;;3.73;;
16922;SDS011;8578;50.938;13.556;2023-04-16T14:40:19;5.20;;;3.30;;
16922;SDS011;8578;50.938;13.556;2023-04-16T14:42:46;4.70;;;3.07;;
16922;SDS011;8578;50.938;13.556;2023-04-16T14:45:14;3.57;;;3.03;;
16922;SDS011;8578;50.938;13.556;2023-04-16T14:47:42;10.07;;;3.90;;
16922;SDS011;8578;50.938;13.556;2023-04-16T14:50:15;4.10;;;2.90;;
16922;SDS011;8578;50.938;13.556;2023-04-16T14:52:42;7.03;;;3.37;;
16922;SDS011;8578;50.938;13.556;2023-04-16T14:55:10;4.43;;;3.07;;